Time;durP1;ratioP1;P1;durP2;ratioP2;P2;SDS_P1;SDS_P2;PMS_P1;PMS_P2;Temp;Humidity;BMP_temperature;BMP_pressure;BME280_temperature;BME280_humidity;BME280_pressure;Samples;Min_cycle;Max_cycle;Signal;HPM_P1;HPM_P2
2022/07/16 00:01:26;;;;;;;;;;;16.40;99.90;;;;;;4956942;28;20287;-83
2022/07/16 00:03:56;;;;;;;;;;;16.40;99.90;;;;;;4991648;28;20336;-83
2022/07/16 00:06:22;;;;;;;;;;;16.50;99.90;;;;;;4987736;28;19929;-83
2022/07/16 00:08:48;;;;;;;;;;;16.50;99.90;;;;;;4997161;28;20369;-84
2022/07/16 00:11:14;;;;;;;;;;;16.50;99.90;;;;;;4991495;28;19929;-85
2022/07/16 00:13:40;;;;;;;;;;;16.40;99.90;;;;;;4992909;28;19933;-84
2022/07/16 00:16:06;;;;;;;;;;;16.40;99.90;;;;;;4971484;28;19928;-85
2022/07/16 00:21:16;;;;;;;;;;;16.40;99.90;;;;;;4992948;28;19929;-85
2022/07/16 00:23:42;;;;;;;;;;;16.40;99.90;;;;;;4993632;28;20878;-84
2022/07/16 00:26:07;;;;;;;;;;;16.40;99.90;;;;;;4991253;28;20119;-85
2022/07/16 00:28:33;;;;;;;;;;;16.40;99.90;;;;;;4993194;28;20390;-85
2022/07/16 00:30:59;;;;;;;;;;;16.30;99.90;;;;;;4978469;28;20065;-85
2022/07/16 00:33:26;;;;;;;;;;;16.30;99.90;;;;;;4996275;28;22021;-84
2022/07/16 00:35:52;;;;;;;;;;;16.20;99.90;;;;;;4996141;28;20114;-84
2022/07/16 00:38:18;;;;;;;;;;;16.30;99.90;;;;;;4992835;28;19929;-84
2022/07/16 00:40:44;;;;;;;;;;;16.20;99.90;;;;;;4994365;28;19929;-84
2022/07/16 00:43:13;;;;;;;;;;;16.30;99.90;;;;;;5009550;28;19929;-84
2022/07/16 00:45:39;;;;;;;;;;;16.20;99.90;;;;;;4971724;28;19936;-83
2022/07/16 00:48:05;;;;;;;;;;;16.20;99.90;;;;;;5008769;28;19933;-83
2022/07/16 00:50:32;;;;;;;;;;;16.30;99.90;;;;;;5010029;28;20446;-83
2022/07/16 00:52:58;;;;;;;;;;;16.30;99.90;;;;;;5005053;28;20024;-84
2022/07/16 00:55:24;;;;;;;;;;;16.30;99.90;;;;;;5004973;28;20334;-83
2022/07/16 00:57:49;;;;;;;;;;;16.30;99.90;;;;;;4989747;28;19929;-83
2022/07/16 01:00:15;;;;;;;;;;;16.30;99.90;;;;;;5010333;28;19937;-83
2022/07/16 01:02:41;;;;;;;;;;;16.40;99.90;;;;;;5010830;28;19933;-84
2022/07/16 01:05:07;;;;;;;;;;;16.40;99.90;;;;;;5009153;28;20417;-83
2022/07/16 01:07:33;;;;;;;;;;;16.40;99.90;;;;;;5013700;28;19929;-83
2022/07/16 01:10:01;;;;;;;;;;;16.40;99.90;;;;;;5010304;28;19929;-84
2022/07/16 01:12:27;;;;;;;;;;;16.40;99.90;;;;;;5017191;28;20006;-83
2022/07/16 01:14:52;;;;;;;;;;;16.40;99.90;;;;;;5013826;28;20453;-83
2022/07/16 01:17:18;;;;;;;;;;;16.40;99.90;;;;;;5010436;28;19933;-83
2022/07/16 01:19:44;;;;;;;;;;;16.40;99.90;;;;;;5009578;28;20406;-84
2022/07/16 01:22:09;;;;;;;;;;;16.50;99.90;;;;;;5008013;28;19940;-84
2022/07/16 01:24:39;;;;;;;;;;;16.50;99.90;;;;;;4994583;28;20019;-83
2022/07/16 01:27:04;;;;;;;;;;;16.50;99.90;;;;;;5009802;28;19936;-84
2022/07/16 01:29:30;;;;;;;;;;;16.50;99.90;;;;;;5015414;28;19933;-83
2022/07/16 01:31:56;;;;;;;;;;;16.50;99.90;;;;;;5010420;28;19935;-83
2022/07/16 01:34:27;;;;;;;;;;;16.60;99.90;;;;;;5009154;28;19990;-83
2022/07/16 01:36:53;;;;;;;;;;;16.60;99.90;;;;;;5012167;28;20761;-85
2022/07/16 01:39:19;;;;;;;;;;;16.60;99.90;;;;;;4994112;28;19936;-84
2022/07/16 01:41:52;;;;;;;;;;;16.60;99.90;;;;;;5013069;28;20317;-82
2022/07/16 01:44:18;;;;;;;;;;;16.60;99.90;;;;;;5009905;28;19995;-85
2022/07/16 01:46:43;;;;;;;;;;;16.60;99.90;;;;;;4998231;28;20398;-84
2022/07/16 01:49:09;;;;;;;;;;;16.70;99.90;;;;;;4999561;28;19928;-84
2022/07/16 01:51:35;;;;;;;;;;;16.70;99.90;;;;;;4999373;28;20271;-84
2022/07/16 01:54:00;;;;;;;;;;;16.80;99.90;;;;;;4990610;28;20491;-85
2022/07/16 01:56:26;;;;;;;;;;;16.80;99.90;;;;;;4999214;28;19929;-83
2022/07/16 01:58:52;;;;;;;;;;;16.90;99.90;;;;;;4997725;28;20254;-85
2022/07/16 02:01:17;;;;;;;;;;;16.90;99.90;;;;;;4997853;28;19929;-85
2022/07/16 02:03:43;;;;;;;;;;;16.90;99.90;;;;;;4992557;28;20387;-86
2022/07/16 02:06:09;;;;;;;;;;;16.90;99.90;;;;;;4969665;28;20643;-83
2022/07/16 02:08:34;;;;;;;;;;;16.90;99.90;;;;;;5009315;28;20161;-85
2022/07/16 02:11:00;;;;;;;;;;;16.90;99.90;;;;;;4997447;28;20230;-85
2022/07/16 02:13:25;;;;;;;;;;;16.90;99.90;;;;;;4997921;28;20320;-86
2022/07/16 02:15:51;;;;;;;;;;;16.90;99.90;;;;;;4999143;28;20564;-85
2022/07/16 02:18:17;;;;;;;;;;;16.90;99.90;;;;;;5000521;28;19939;-86
2022/07/16 02:20:42;;;;;;;;;;;16.90;99.90;;;;;;4980297;28;19929;-85
2022/07/16 02:23:08;;;;;;;;;;;16.80;99.90;;;;;;4998098;28;20225;-87
2022/07/16 02:25:34;;;;;;;;;;;16.80;99.90;;;;;;5000779;28;20402;-86
2022/07/16 02:28:05;;;;;;;;;;;16.80;99.90;;;;;;5004022;28;19936;-88
2022/07/16 02:30:32;;;;;;;;;;;16.70;99.90;;;;;;5001326;28;20047;-87
2022/07/16 02:33:01;;;;;;;;;;;16.70;99.90;;;;;;5000086;28;19928;-87
2022/07/16 02:35:27;;;;;;;;;;;16.70;99.90;;;;;;4996872;28;19984;-85
2022/07/16 02:37:52;;;;;;;;;;;16.70;99.90;;;;;;4998554;28;19929;-86
2022/07/16 02:40:18;;;;;;;;;;;16.70;99.90;;;;;;4995070;28;19940;-85
2022/07/16 02:42:44;;;;;;;;;;;16.70;99.90;;;;;;4991703;28;20580;-85
2022/07/16 02:45:11;;;;;;;;;;;16.70;99.90;;;;;;4994897;28;19952;-86
2022/07/16 02:47:36;;;;;;;;;;;16.60;99.90;;;;;;4997628;28;20401;-87
2022/07/16 02:50:03;;;;;;;;;;;16.60;99.90;;;;;;4999889;28;19991;-86
2022/07/16 02:52:29;;;;;;;;;;;16.60;99.90;;;;;;4997121;28;19929;-84
2022/07/16 02:54:55;;;;;;;;;;;16.60;99.90;;;;;;4977875;28;19980;-86
2022/07/16 02:57:20;;;;;;;;;;;16.60;99.90;;;;;;4998457;28;20738;-84
2022/07/16 02:59:46;;;;;;;;;;;16.50;99.90;;;;;;4998190;28;19932;-85
2022/07/16 03:02:11;;;;;;;;;;;16.50;99.90;;;;;;5000075;28;19928;-85
2022/07/16 03:04:38;;;;;;;;;;;16.50;99.90;;;;;;4998803;28;19929;-85
2022/07/16 03:07:04;;;;;;;;;;;16.50;99.90;;;;;;4996099;28;20607;-88
2022/07/16 03:09:30;;;;;;;;;;;16.50;99.90;;;;;;4983557;28;19976;-86
2022/07/16 03:11:55;;;;;;;;;;;16.40;99.90;;;;;;4976749;28;20044;-85
2022/07/16 03:14:21;;;;;;;;;;;16.40;99.90;;;;;;4994818;28;20413;-88
2022/07/16 03:16:46;;;;;;;;;;;16.40;99.90;;;;;;4993682;28;20011;-87
2022/07/16 03:19:12;;;;;;;;;;;16.30;99.90;;;;;;4977842;28;19962;-85
2022/07/16 03:21:38;;;;;;;;;;;16.30;99.90;;;;;;4996817;28;19963;-87
2022/07/16 03:24:04;;;;;;;;;;;16.30;99.90;;;;;;5000378;28;20686;-87
2022/07/16 03:26:29;;;;;;;;;;;16.20;99.90;;;;;;4975781;28;19940;-86
2022/07/16 03:28:55;;;;;;;;;;;16.20;99.90;;;;;;4975076;28;20162;-87
2022/07/16 03:31:21;;;;;;;;;;;16.10;99.90;;;;;;4990602;28;20326;-86
2022/07/16 03:33:46;;;;;;;;;;;16.10;99.90;;;;;;4993336;28;20865;-86
2022/07/16 03:36:12;;;;;;;;;;;16.00;99.90;;;;;;4980311;28;20375;-85
2022/07/16 03:41:22;;;;;;;;;;;15.90;99.90;;;;;;4991319;28;19929;-86
2022/07/16 03:43:48;;;;;;;;;;;15.90;99.90;;;;;;4996074;28;19929;-85
2022/07/16 03:46:14;;;;;;;;;;;15.90;99.90;;;;;;4994134;28;19929;-86
2022/07/16 03:48:42;;;;;;;;;;;15.80;99.90;;;;;;4991856;28;19968;-86
2022/07/16 03:51:09;;;;;;;;;;;15.80;99.90;;;;;;4994880;28;19929;-87
2022/07/16 03:53:34;;;;;;;;;;;15.90;99.90;;;;;;4996891;28;19932;-87
2022/07/16 03:56:00;;;;;;;;;;;15.90;99.90;;;;;;5001847;28;19924;-89
2022/07/16 03:58:26;;;;;;;;;;;15.90;99.90;;;;;;4996645;28;19936;-86
2022/07/16 04:00:52;;;;;;;;;;;15.90;99.90;;;;;;5015147;28;19973;-85
2022/07/16 04:03:18;;;;;;;;;;;15.90;99.90;;;;;;5013178;28;19976;-85
2022/07/16 04:05:44;;;;;;;;;;;15.90;99.90;;;;;;5018605;28;20047;-86
2022/07/16 04:08:09;;;;;;;;;;;15.90;99.90;;;;;;4998567;28;20568;-86
2022/07/16 04:10:35;;;;;;;;;;;15.90;99.90;;;;;;5000908;28;19970;-87
2022/07/16 04:13:01;;;;;;;;;;;16.00;99.90;;;;;;5013761;28;20055;-87
2022/07/16 04:15:26;;;;;;;;;;;15.90;99.90;;;;;;5015028;28;19929;-86
2022/07/16 04:17:52;;;;;;;;;;;15.90;99.90;;;;;;5014166;28;20936;-86
2022/07/16 04:20:18;;;;;;;;;;;16.00;99.90;;;;;;5021432;28;19925;-86
2022/07/16 04:22:43;;;;;;;;;;;16.10;99.90;;;;;;5012820;28;19944;-86
2022/07/16 04:25:09;;;;;;;;;;;16.10;99.90;;;;;;5013782;28;19976;-86
2022/07/16 04:27:35;;;;;;;;;;;16.10;99.90;;;;;;5018741;28;19969;-86
2022/07/16 04:30:00;;;;;;;;;;;16.10;99.90;;;;;;5003163;28;20279;-84
2022/07/16 04:32:26;;;;;;;;;;;16.00;99.90;;;;;;4999791;28;20707;-87
2022/07/16 04:34:52;;;;;;;;;;;16.10;99.90;;;;;;4994607;28;20261;-88
2022/07/16 04:37:17;;;;;;;;;;;16.00;99.90;;;;;;5013728;28;20015;-85
2022/07/16 04:39:43;;;;;;;;;;;16.00;99.90;;;;;;5014890;28;20303;-87
2022/07/16 04:42:09;;;;;;;;;;;15.90;99.90;;;;;;4997033;28;19966;-85
2022/07/16 04:44:34;;;;;;;;;;;15.90;99.90;;;;;;5016456;28;20282;-86
2022/07/16 04:47:00;;;;;;;;;;;16.00;99.90;;;;;;4998629;28;19973;-86
2022/07/16 04:49:26;;;;;;;;;;;15.90;99.90;;;;;;5010685;28;20706;-86
2022/07/16 04:51:51;;;;;;;;;;;16.00;99.90;;;;;;5010596;28;20019;-85
2022/07/16 04:54:17;;;;;;;;;;;16.20;99.90;;;;;;4987177;28;19975;-85
2022/07/16 04:56:43;;;;;;;;;;;18.30;99.90;;;;;;5013270;28;20004;-85
2022/07/16 04:59:09;;;;;;;;;;;19.80;99.90;;;;;;5012076;28;20056;-86
2022/07/16 05:01:34;;;;;;;;;;;20.80;99.90;;;;;;5012244;28;19987;-87
2022/07/16 05:04:00;;;;;;;;;;;21.60;99.90;;;;;;5009045;28;19929;-87
2022/07/16 05:06:26;;;;;;;;;;;22.70;99.90;;;;;;5008483;28;19971;-88
2022/07/16 05:08:52;;;;;;;;;;;20.70;99.90;;;;;;4979910;28;19929;-85
2022/07/16 05:11:17;;;;;;;;;;;20.90;99.90;;;;;;5012021;28;20344;-87
2022/07/16 05:13:43;;;;;;;;;;;22.50;99.90;;;;;;5015321;28;19933;-85
2022/07/16 05:16:09;;;;;;;;;;;23.30;99.90;;;;;;5013598;28;19933;-88
2022/07/16 05:18:34;;;;;;;;;;;23.90;99.90;;;;;;5010286;28;20428;-87
2022/07/16 05:21:00;;;;;;;;;;;24.20;99.90;;;;;;5012431;28;19933;-85
2022/07/16 05:23:26;;;;;;;;;;;25.00;99.90;;;;;;5014750;28;20509;-86
2022/07/16 05:25:51;;;;;;;;;;;25.20;99.90;;;;;;5012073;28;20310;-86
2022/07/16 05:28:17;;;;;;;;;;;25.70;99.90;;;;;;5015188;28;19929;-86
2022/07/16 05:30:43;;;;;;;;;;;26.10;99.90;;;;;;5007626;28;19933;-84
2022/07/16 05:33:08;;;;;;;;;;;25.50;99.90;;;;;;5013585;28;20298;-85
2022/07/16 05:35:34;;;;;;;;;;;26.10;99.90;;;;;;5015358;28;19951;-86
2022/07/16 05:38:00;;;;;;;;;;;25.90;99.90;;;;;;5016417;28;19933;-86
2022/07/16 05:40:26;;;;;;;;;;;26.40;99.90;;;;;;5012020;28;19929;-84
2022/07/16 05:42:51;;;;;;;;;;;25.30;99.90;;;;;;5017512;28;19983;-85
2022/07/16 05:45:17;;;;;;;;;;;25.20;99.90;;;;;;5019489;28;19928;-85
2022/07/16 05:47:43;;;;;;;;;;;25.50;99.90;;;;;;4995940;28;19933;-86
2022/07/16 05:50:09;;;;;;;;;;;23.70;99.90;;;;;;5014764;28;19936;-86
2022/07/16 05:52:34;;;;;;;;;;;24.30;99.90;;;;;;5016574;28;19975;-85
2022/07/16 05:55:00;;;;;;;;;;;22.60;99.90;;;;;;5021379;28;20306;-86
2022/07/16 05:57:26;;;;;;;;;;;21.80;99.90;;;;;;5001237;28;19936;-85
2022/07/16 05:59:51;;;;;;;;;;;21.40;99.90;;;;;;5013200;28;19929;-88
2022/07/16 06:02:18;;;;;;;;;;;21.50;99.90;;;;;;5013763;28;19933;-85
2022/07/16 06:04:43;;;;;;;;;;;20.90;99.90;;;;;;4990219;28;20710;-86
2022/07/16 06:07:09;;;;;;;;;;;20.50;99.90;;;;;;4990223;28;19936;-85
2022/07/16 06:09:35;;;;;;;;;;;19.70;99.90;;;;;;5014158;28;19935;-86
2022/07/16 06:12:01;;;;;;;;;;;19.20;99.90;;;;;;4976304;28;20027;-87
2022/07/16 06:14:27;;;;;;;;;;;19.10;99.90;;;;;;4995135;28;19929;-86
2022/07/16 06:16:52;;;;;;;;;;;18.70;99.90;;;;;;5004824;28;19929;-86
2022/07/16 06:19:18;;;;;;;;;;;18.20;99.90;;;;;;5001492;28;19975;-89
2022/07/16 06:21:44;;;;;;;;;;;18.60;99.90;;;;;;4979838;28;19933;-86
2022/07/16 06:24:09;;;;;;;;;;;19.00;99.90;;;;;;4998087;28;20427;-88
2022/07/16 06:26:35;;;;;;;;;;;18.80;99.90;;;;;;5002848;28;20189;-86
2022/07/16 06:29:01;;;;;;;;;;;18.50;99.90;;;;;;5002266;28;19962;-83
2022/07/16 06:31:26;;;;;;;;;;;18.70;99.90;;;;;;4984716;28;19986;-86
2022/07/16 06:33:52;;;;;;;;;;;18.70;99.90;;;;;;5000403;28;20307;-85
2022/07/16 06:36:18;;;;;;;;;;;18.90;99.90;;;;;;5000227;28;19944;-84
2022/07/16 06:38:44;;;;;;;;;;;18.70;99.90;;;;;;4984846;28;19940;-86
2022/07/16 06:41:09;;;;;;;;;;;18.70;99.90;;;;;;5002392;28;19936;-86
2022/07/16 06:43:36;;;;;;;;;;;18.50;99.90;;;;;;5001392;28;19979;-86
2022/07/16 06:46:02;;;;;;;;;;;18.70;99.90;;;;;;5001850;28;19983;-86
2022/07/16 06:48:28;;;;;;;;;;;19.40;99.90;;;;;;5007099;28;20341;-86
2022/07/16 06:50:54;;;;;;;;;;;19.80;99.90;;;;;;5008128;28;19933;-85
2022/07/16 06:53:19;;;;;;;;;;;19.90;99.90;;;;;;5016218;28;20003;-85
2022/07/16 06:55:45;;;;;;;;;;;20.30;99.90;;;;;;5015399;28;20052;-87
2022/07/16 06:58:11;;;;;;;;;;;20.30;99.90;;;;;;5021144;28;20044;-87
2022/07/16 07:00:36;;;;;;;;;;;20.40;99.90;;;;;;5033444;28;19929;-86
2022/07/16 07:03:02;;;;;;;;;;;20.80;99.90;;;;;;5017925;28;20011;-86
2022/07/16 07:05:28;;;;;;;;;;;20.60;99.90;;;;;;5016264;28;20321;-87
2022/07/16 07:07:54;;;;;;;;;;;20.50;99.90;;;;;;5017562;28;19987;-86
2022/07/16 07:10:20;;;;;;;;;;;20.60;99.90;;;;;;5017294;28;19928;-84
2022/07/16 07:12:46;;;;;;;;;;;20.60;99.90;;;;;;5014455;28;20678;-85
2022/07/16 07:15:11;;;;;;;;;;;20.70;99.90;;;;;;5013386;28;19935;-83
2022/07/16 07:17:37;;;;;;;;;;;21.00;99.90;;;;;;5014513;28;19952;-87
2022/07/16 07:20:05;;;;;;;;;;;21.20;99.90;;;;;;5015903;28;20067;-88
2022/07/16 07:22:31;;;;;;;;;;;20.70;99.90;;;;;;5022214;28;19935;-86
2022/07/16 07:24:57;;;;;;;;;;;20.90;99.90;;;;;;5013896;28;19924;-85
2022/07/16 07:27:23;;;;;;;;;;;20.70;99.90;;;;;;5011590;28;19939;-88
2022/07/16 07:29:48;;;;;;;;;;;20.50;99.90;;;;;;5013796;28;19928;-86
2022/07/16 07:32:14;;;;;;;;;;;20.00;99.90;;;;;;5011872;28;20673;-86
2022/07/16 07:34:49;;;;;;;;;;;20.20;99.90;;;;;;4996857;28;19933;-84
2022/07/16 07:37:16;;;;;;;;;;;20.00;99.90;;;;;;5001198;28;19960;-87
2022/07/16 07:39:41;;;;;;;;;;;19.60;99.90;;;;;;5011255;28;20309;-86
2022/07/16 07:42:07;;;;;;;;;;;19.40;99.90;;;;;;5011662;28;19936;-88
2022/07/16 07:44:33;;;;;;;;;;;19.30;99.90;;;;;;4995662;28;19940;-86
2022/07/16 07:46:58;;;;;;;;;;;19.60;99.90;;;;;;5034050;28;19928;-87
2022/07/16 07:49:24;;;;;;;;;;;19.80;99.90;;;;;;4993735;28;19944;-88
2022/07/16 07:51:50;;;;;;;;;;;19.50;99.90;;;;;;4995598;28;19929;-84
2022/07/16 07:54:15;;;;;;;;;;;19.10;99.90;;;;;;5009600;28;19980;-85
2022/07/16 07:56:41;;;;;;;;;;;18.90;99.90;;;;;;5013512;28;19935;-86
2022/07/16 07:59:07;;;;;;;;;;;19.90;99.90;;;;;;5008777;28;20031;-85
2022/07/16 08:01:32;;;;;;;;;;;19.20;99.90;;;;;;5013599;28;19933;-85
2022/07/16 08:03:58;;;;;;;;;;;19.50;99.90;;;;;;5017652;28;20721;-85
2022/07/16 08:06:24;;;;;;;;;;;20.10;99.90;;;;;;5004392;28;19933;-85
2022/07/16 08:08:49;;;;;;;;;;;19.80;99.90;;;;;;5004034;28;19929;-89
2022/07/16 08:11:15;;;;;;;;;;;20.10;99.90;;;;;;5022600;28;19929;-85
2022/07/16 08:13:41;;;;;;;;;;;20.60;99.90;;;;;;5018141;28;19933;-85
2022/07/16 08:16:07;;;;;;;;;;;20.40;99.90;;;;;;5015773;28;20386;-85
2022/07/16 08:18:32;;;;;;;;;;;20.30;99.90;;;;;;5017553;28;19936;-87
2022/07/16 08:20:58;;;;;;;;;;;20.70;99.90;;;;;;5013047;28;19972;-89
2022/07/16 08:26:08;;;;;;;;;;;20.60;99.90;;;;;;5012595;28;19940;-85
2022/07/16 08:28:34;;;;;;;;;;;20.70;99.90;;;;;;5019930;28;19929;-88
2022/07/16 08:31:00;;;;;;;;;;;20.90;99.90;;;;;;5012326;28;20297;-87
2022/07/16 08:33:25;;;;;;;;;;;21.20;99.90;;;;;;5015021;28;20019;-82
2022/07/16 08:35:51;;;;;;;;;;;20.40;99.90;;;;;;5018818;28;19978;-84
2022/07/16 08:38:17;;;;;;;;;;;20.10;99.90;;;;;;4994732;28;20426;-85
2022/07/16 08:40:43;;;;;;;;;;;21.00;99.90;;;;;;5017152;28;19929;-87
2022/07/16 08:43:09;;;;;;;;;;;21.40;99.90;;;;;;5016919;28;20033;-85
2022/07/16 08:45:38;;;;;;;;;;;20.80;99.50;;;;;;5018757;28;19950;-86
2022/07/16 08:48:03;;;;;;;;;;;21.20;99.90;;;;;;5019802;28;21321;-86
2022/07/16 08:50:29;;;;;;;;;;;21.00;99.90;;;;;;5023630;28;19932;-86
2022/07/16 08:52:57;;;;;;;;;;;21.20;99.90;;;;;;5014975;28;19936;-88
2022/07/16 08:55:26;;;;;;;;;;;21.00;99.90;;;;;;4990379;28;19929;-87
2022/07/16 08:57:51;;;;;;;;;;;20.30;99.90;;;;;;5015547;28;20061;-85
2022/07/16 09:00:18;;;;;;;;;;;20.00;99.90;;;;;;5016602;28;20418;-84
2022/07/16 09:02:44;;;;;;;;;;;20.10;99.90;;;;;;5015957;28;20754;-85
2022/07/16 09:05:10;;;;;;;;;;;19.90;99.90;;;;;;5021375;28;20272;-84
2022/07/16 09:07:36;;;;;;;;;;;19.60;99.90;;;;;;5016510;28;19936;-86
2022/07/16 09:10:10;;;;;;;;;;;19.80;99.90;;;;;;5020961;28;19929;-84
2022/07/16 09:12:46;;;;;;;;;;;20.70;99.90;;;;;;5016139;28;19929;-86
2022/07/16 09:15:38;;;;;;;;;;;21.20;99.90;;;;;;5015523;28;19936;-87
2022/07/16 09:18:08;;;;;;;;;;;21.20;99.90;;;;;;5013838;28;19933;-86
2022/07/16 09:20:34;;;;;;;;;;;20.90;99.70;;;;;;5018936;28;19934;-86
2022/07/16 09:23:00;;;;;;;;;;;20.80;99.90;;;;;;5017505;28;20324;-85
2022/07/16 09:25:26;;;;;;;;;;;20.60;99.90;;;;;;5015752;28;20062;-87
2022/07/16 09:27:58;;;;;;;;;;;20.40;99.90;;;;;;4999310;28;19933;-87
2022/07/16 09:30:25;;;;;;;;;;;20.20;99.90;;;;;;5017380;28;19959;-87
2022/07/16 09:32:50;;;;;;;;;;;21.00;99.90;;;;;;5014410;28;19933;-83
2022/07/16 09:35:17;;;;;;;;;;;21.10;99.90;;;;;;5014688;28;19975;-88
2022/07/16 09:37:46;;;;;;;;;;;21.40;99.90;;;;;;4999857;28;19952;-83
2022/07/16 09:40:12;;;;;;;;;;;21.00;98.20;;;;;;5017637;28;19964;-85
2022/07/16 09:42:39;;;;;;;;;;;21.70;99.10;;;;;;5016372;28;19929;-84
2022/07/16 09:45:05;;;;;;;;;;;22.00;97.20;;;;;;5018126;28;19932;-87
2022/07/16 09:47:31;;;;;;;;;;;23.10;98.60;;;;;;5016701;28;20490;-85
2022/07/16 09:49:57;;;;;;;;;;;23.20;99.10;;;;;;5018865;28;19929;-85
2022/07/16 09:52:30;;;;;;;;;;;23.00;97.80;;;;;;5013937;28;19929;-86
2022/07/16 09:54:56;;;;;;;;;;;22.30;98.70;;;;;;5003843;28;19935;-85
2022/07/16 09:57:25;;;;;;;;;;;21.20;97.70;;;;;;5015031;28;19929;-83
2022/07/16 09:59:52;;;;;;;;;;;21.30;99.90;;;;;;5012181;28;19940;-86
2022/07/16 10:02:17;;;;;;;;;;;21.40;99.90;;;;;;5017197;28;19929;-87
2022/07/16 10:04:43;;;;;;;;;;;21.90;99.90;;;;;;5019764;28;19939;-85
2022/07/16 10:07:09;;;;;;;;;;;21.60;99.90;;;;;;5021741;28;20330;-84
2022/07/16 10:09:34;;;;;;;;;;;21.50;99.70;;;;;;5019398;28;19936;-86
2022/07/16 10:12:16;;;;;;;;;;;21.30;98.60;;;;;;5019160;28;19937;-86
2022/07/16 10:14:46;;;;;;;;;;;21.00;98.30;;;;;;4986246;28;20649;-86
2022/07/16 10:17:15;;;;;;;;;;;21.90;99.10;;;;;;5019977;28;19929;-84
2022/07/16 10:19:42;;;;;;;;;;;22.50;98.90;;;;;;5022411;28;19929;-88
2022/07/16 10:22:19;;;;;;;;;;;22.20;97.50;;;;;;5016836;28;20024;-89
2022/07/16 10:24:53;;;;;;;;;;;21.50;97.60;;;;;;5016445;28;19929;-85
2022/07/16 10:27:18;;;;;;;;;;;22.30;98.60;;;;;;5017877;28;19928;-87
2022/07/16 10:29:44;;;;;;;;;;;23.20;99.00;;;;;;5019772;28;19929;-85
2022/07/16 10:32:29;;;;;;;;;;;23.60;96.40;;;;;;5020272;28;19940;-86
2022/07/16 10:34:55;;;;;;;;;;;22.70;96.30;;;;;;5016118;28;20194;-88
2022/07/16 10:37:26;;;;;;;;;;;22.80;98.30;;;;;;4998581;28;20871;-86
2022/07/16 10:40:10;;;;;;;;;;;23.20;97.90;;;;;;5001116;28;19984;-87
2022/07/16 10:42:36;;;;;;;;;;;23.70;97.30;;;;;;4992869;28;19972;-88
2022/07/16 10:45:02;;;;;;;;;;;22.90;96.70;;;;;;4994785;28;20445;-88
2022/07/16 10:48:01;;;;;;;;;;;22.40;96.70;;;;;;5009185;28;20426;-87
2022/07/16 10:50:27;;;;;;;;;;;23.10;98.10;;;;;;4959442;28;19979;-86
2022/07/16 10:52:53;;;;;;;;;;;23.90;98.70;;;;;;5003601;28;20007;-87
2022/07/16 10:55:32;;;;;;;;;;;22.80;95.70;;;;;;4979510;28;19929;-86
2022/07/16 10:57:58;;;;;;;;;;;22.40;97.50;;;;;;4998362;28;20607;-85
2022/07/16 11:00:24;;;;;;;;;;;21.60;97.30;;;;;;4997063;28;20521;-86
2022/07/16 11:02:55;;;;;;;;;;;22.60;99.90;;;;;;4997695;28;20306;-86
2022/07/16 11:05:23;;;;;;;;;;;23.30;99.90;;;;;;4998033;28;20024;-87
2022/07/16 11:07:49;;;;;;;;;;;23.50;99.20;;;;;;4994231;28;19933;-86
2022/07/16 11:10:15;;;;;;;;;;;23.60;98.90;;;;;;4997048;28;19929;-90
2022/07/16 11:12:41;;;;;;;;;;;23.60;97.60;;;;;;5005255;28;20007;-86
2022/07/16 11:15:06;;;;;;;;;;;23.30;98.70;;;;;;5012254;28;20704;-84
2022/07/16 11:17:33;;;;;;;;;;;23.10;96.70;;;;;;5017304;28;19939;-87
2022/07/16 11:20:00;;;;;;;;;;;23.00;97.80;;;;;;5015014;28;19975;-85
2022/07/16 11:22:27;;;;;;;;;;;23.30;98.70;;;;;;5012761;28;19929;-87
2022/07/16 11:24:55;;;;;;;;;;;23.70;98.60;;;;;;5011090;28;20446;-86
2022/07/16 11:27:25;;;;;;;;;;;23.10;98.20;;;;;;4993594;28;20362;-85
2022/07/16 11:29:56;;;;;;;;;;;22.80;97.80;;;;;;5018781;28;20388;-84
2022/07/16 11:32:22;;;;;;;;;;;23.00;98.30;;;;;;5014036;28;20261;-87
2022/07/16 11:34:48;;;;;;;;;;;23.50;99.50;;;;;;5017934;28;19928;-84
2022/07/16 11:37:14;;;;;;;;;;;23.70;98.00;;;;;;4996287;28;19932;-84
2022/07/16 11:39:40;;;;;;;;;;;24.10;96.90;;;;;;5017085;28;20766;-85
2022/07/16 11:42:06;;;;;;;;;;;24.30;97.90;;;;;;5017391;28;19940;-87
2022/07/16 11:44:32;;;;;;;;;;;24.10;97.40;;;;;;5016797;28;19929;-85
2022/07/16 11:47:00;;;;;;;;;;;24.20;97.70;;;;;;5009345;28;20401;-86
2022/07/16 11:49:30;;;;;;;;;;;24.80;95.70;;;;;;5014313;28;20078;-87
2022/07/16 11:52:00;;;;;;;;;;;24.60;95.20;;;;;;5017955;28;19990;-85
2022/07/16 11:54:26;;;;;;;;;;;24.70;93.80;;;;;;5014241;28;19935;-84
2022/07/16 11:56:53;;;;;;;;;;;25.30;95.70;;;;;;4999798;28;20372;-86
2022/07/16 11:59:28;;;;;;;;;;;25.60;96.30;;;;;;5014474;28;19999;-89
2022/07/16 12:02:02;;;;;;;;;;;25.50;91.90;;;;;;5000612;28;20095;-85
2022/07/16 12:04:36;;;;;;;;;;;25.50;95.20;;;;;;5000650;28;19929;-87
2022/07/16 12:07:02;;;;;;;;;;;25.70;94.70;;;;;;5000521;28;20321;-88
2022/07/16 12:09:33;;;;;;;;;;;25.90;92.20;;;;;;5012714;28;19935;-86
2022/07/16 12:11:59;;;;;;;;;;;25.10;91.00;;;;;;5002502;28;19929;-84
2022/07/16 12:14:41;;;;;;;;;;;24.10;92.50;;;;;;4998798;28;19929;-85
2022/07/16 12:17:16;;;;;;;;;;;23.80;92.90;;;;;;5020224;28;19936;-87
2022/07/16 12:19:42;;;;;;;;;;;23.10;93.60;;;;;;5007535;28;20353;-84
2022/07/16 12:22:08;;;;;;;;;;;23.60;93.60;;;;;;5013630;28;19929;-85
2022/07/16 12:24:33;;;;;;;;;;;24.50;95.20;;;;;;5014205;28;20112;-85
2022/07/16 12:26:59;;;;;;;;;;;24.30;95.10;;;;;;5008924;28;19929;-86
2022/07/16 12:29:36;;;;;;;;;;;24.80;94.70;;;;;;5008276;28;19933;-84
2022/07/16 12:32:03;;;;;;;;;;;24.20;91.90;;;;;;5009750;28;19955;-85
2022/07/16 12:34:42;;;;;;;;;;;24.70;92.10;;;;;;5013431;28;20024;-87
2022/07/16 12:37:15;;;;;;;;;;;24.90;94.00;;;;;;5008366;28;19935;-88
2022/07/16 12:39:41;;;;;;;;;;;25.10;93.10;;;;;;5015656;28;20382;-85
2022/07/16 12:42:06;;;;;;;;;;;25.60;94.70;;;;;;4988797;28;19936;-85
2022/07/16 12:44:32;;;;;;;;;;;24.70;92.40;;;;;;5017321;28;19928;-85
2022/07/16 12:46:58;;;;;;;;;;;24.60;93.50;;;;;;5014821;28;19950;-86
2022/07/16 12:49:25;;;;;;;;;;;25.30;93.90;;;;;;5015917;28;19959;-86
2022/07/16 12:51:52;;;;;;;;;;;25.20;92.20;;;;;;5012419;28;19936;-86
2022/07/16 12:54:19;;;;;;;;;;;24.80;91.50;;;;;;5020658;28;19991;-88
2022/07/16 12:59:29;;;;;;;;;;;25.70;93.60;;;;;;5023560;28;20750;-85
2022/07/16 13:01:55;;;;;;;;;;;24.50;92.10;;;;;;4999308;28;19937;-86
2022/07/16 13:04:21;;;;;;;;;;;24.00;92.10;;;;;;5020112;28;19929;-85
2022/07/16 13:06:47;;;;;;;;;;;23.50;92.60;;;;;;5019283;28;19928;-86
2022/07/16 13:09:13;;;;;;;;;;;23.90;92.70;;;;;;5019552;28;19933;-84
2022/07/16 13:11:39;;;;;;;;;;;24.60;93.50;;;;;;5016633;28;19952;-85
2022/07/16 13:14:05;;;;;;;;;;;25.00;94.40;;;;;;5001896;28;19983;-86
2022/07/16 13:16:31;;;;;;;;;;;25.10;94.00;;;;;;5013405;28;19929;-85
2022/07/16 13:18:56;;;;;;;;;;;24.80;92.40;;;;;;5019151;28;19944;-83
2022/07/16 13:21:23;;;;;;;;;;;24.30;94.00;;;;;;5018785;28;20701;-84
2022/07/16 13:23:50;;;;;;;;;;;23.80;92.80;;;;;;5017030;28;19991;-86
2022/07/16 13:26:16;;;;;;;;;;;24.20;94.10;;;;;;4999330;28;19933;-86
2022/07/16 13:28:42;;;;;;;;;;;24.80;93.50;;;;;;5016495;28;19929;-86
2022/07/16 13:31:08;;;;;;;;;;;24.80;92.50;;;;;;5022589;28;19928;-87
2022/07/16 13:33:34;;;;;;;;;;;25.20;93.10;;;;;;5020900;28;19935;-87
2022/07/16 13:36:00;;;;;;;;;;;24.40;91.60;;;;;;5036847;28;19936;-87
2022/07/16 13:38:26;;;;;;;;;;;23.60;93.50;;;;;;4988340;28;19929;-86
2022/07/16 13:40:51;;;;;;;;;;;23.20;91.60;;;;;;5001365;28;19940;-88
2022/07/16 13:43:19;;;;;;;;;;;23.50;93.70;;;;;;5018133;28;19929;-86
2022/07/16 13:45:45;;;;;;;;;;;23.70;92.40;;;;;;5023158;28;20031;-84
2022/07/16 13:48:11;;;;;;;;;;;23.80;94.10;;;;;;5021153;28;19929;-86
2022/07/16 13:50:36;;;;;;;;;;;23.70;93.60;;;;;;5001459;28;20371;-86
2022/07/16 13:53:02;;;;;;;;;;;24.10;94.10;;;;;;5016947;28;19936;-86
2022/07/16 13:55:28;;;;;;;;;;;24.80;94.70;;;;;;5019192;28;19929;-85
2022/07/16 14:00:39;;;;;;;;;;;24.60;92.50;;;;;;5020936;28;19979;-84
2022/07/16 14:03:05;;;;;;;;;;;24.60;91.80;;;;;;5013232;28;20028;-87
2022/07/16 14:05:31;;;;;;;;;;;25.10;90.40;;;;;;5021443;28;19935;-86
2022/07/16 14:08:03;;;;;;;;;;;24.90;91.50;;;;;;5010950;28;20413;-84
2022/07/16 14:10:29;;;;;;;;;;;25.50;92.30;;;;;;5027577;28;19929;-85
2022/07/16 14:12:55;;;;;;;;;;;26.00;92.60;;;;;;5002466;28;19955;-85
2022/07/16 14:15:21;;;;;;;;;;;26.00;91.10;;;;;;5000849;28;20483;-85
2022/07/16 14:17:46;;;;;;;;;;;25.60;90.70;;;;;;5002803;28;20073;-85
2022/07/16 14:20:13;;;;;;;;;;;25.70;92.10;;;;;;5005003;28;19935;-87
2022/07/16 14:22:39;;;;;;;;;;;25.20;91.40;;;;;;5002817;28;19928;-85
2022/07/16 14:25:06;;;;;;;;;;;25.10;90.90;;;;;;5004217;28;19933;-86
2022/07/16 14:27:32;;;;;;;;;;;24.30;91.40;;;;;;4995499;28;19964;-86